sensor_id;sensor_type;location;lat;lon;timestamp;P1;durP1;ratioP1;P2;durP2;ratioP2
3677;SDS011;1855;50.934;6.958;2023-08-31T00:01:29;3.97;;;3.10;;
3677;SDS011;1855;50.934;6.958;2023-08-31T00:03:59;6.03;;;3.63;;
3677;SDS011;1855;50.934;6.958;2023-08-31T00:06:26;4.60;;;3.58;;
3677;SDS011;1855;50.934;6.958;2023-08-31T00:08:53;4.57;;;3.20;;
3677;SDS011;1855;50.934;6.958;2023-08-31T00:11:20;4.45;;;3.10;;
3677;SDS011;1855;50.934;6.958;2023-08-31T00:13:47;5.10;;;3.30;;
3677;SDS011;1855;50.934;6.958;2023-08-31T00:16:14;4.80;;;3.57;;
3677;SDS011;1855;50.934;6.958;2023-08-31T00:18:41;5.10;;;3.13;;
3677;SDS011;1855;50.934;6.958;2023-08-31T00:21:11;6.63;;;3.78;;
3677;SDS011;1855;50.934;6.958;2023-08-31T00:23:38;5.53;;;3.28;;
3677;SDS011;1855;50.934;6.958;2023-08-31T00:26:05;7.13;;;3.63;;
3677;SDS011;1855;50.934;6.958;2023-08-31T00:28:33;4.00;;;3.47;;
3677;SDS011;1855;50.934;6.958;2023-08-31T00:31:01;5.55;;;3.38;;
3677;SDS011;1855;50.934;6.958;2023-08-31T00:33:29;4.35;;;3.28;;
3677;SDS011;1855;50.934;6.958;2023-08-31T00:35:58;5.15;;;3.53;;
3677;SDS011;1855;50.934;6.958;2023-08-31T00:38:29;5.70;;;4.00;;
3677;SDS011;1855;50.934;6.958;2023-08-31T00:40:57;5.88;;;3.22;;
3677;SDS011;1855;50.934;6.958;2023-08-31T00:43:24;6.50;;;3.35;;
3677;SDS011;1855;50.934;6.958;2023-08-31T00:45:51;5.25;;;3.65;;
3677;SDS011;1855;50.934;6.958;2023-08-31T00:48:23;4.95;;;3.15;;
3677;SDS011;1855;50.934;6.958;2023-08-31T00:50:51;6.28;;;3.60;;
3677;SDS011;1855;50.934;6.958;2023-08-31T00:53:18;5.88;;;3.45;;
3677;SDS011;1855;50.934;6.958;2023-08-31T00:55:47;6.40;;;3.37;;
3677;SDS011;1855;50.934;6.958;2023-08-31T00:58:14;5.85;;;3.67;;
3677;SDS011;1855;50.934;6.958;2023-08-31T01:00:43;4.10;;;3.43;;
3677;SDS011;1855;50.934;6.958;2023-08-31T01:03:12;7.40;;;3.80;;
3677;SDS011;1855;50.934;6.958;2023-08-31T01:05:42;6.22;;;4.28;;
3677;SDS011;1855;50.934;6.958;2023-08-31T01:08:14;5.43;;;3.77;;
3677;SDS011;1855;50.934;6.958;2023-08-31T01:10:52;6.43;;;3.75;;
3677;SDS011;1855;50.934;6.958;2023-08-31T01:13:22;6.35;;;3.75;;
3677;SDS011;1855;50.934;6.958;2023-08-31T01:15:51;7.03;;;4.63;;
3677;SDS011;1855;50.934;6.958;2023-08-31T01:18:19;4.47;;;3.70;;
3677;SDS011;1855;50.934;6.958;2023-08-31T01:20:50;5.68;;;4.70;;
3677;SDS011;1855;50.934;6.958;2023-08-31T01:23:19;4.68;;;3.88;;
3677;SDS011;1855;50.934;6.958;2023-08-31T01:25:48;5.57;;;4.20;;
3677;SDS011;1855;50.934;6.958;2023-08-31T01:28:16;6.18;;;4.30;;
3677;SDS011;1855;50.934;6.958;2023-08-31T01:30:43;6.82;;;4.20;;
3677;SDS011;1855;50.934;6.958;2023-08-31T01:33:10;7.13;;;5.00;;
3677;SDS011;1855;50.934;6.958;2023-08-31T01:35:38;5.22;;;4.20;;
3677;SDS011;1855;50.934;6.958;2023-08-31T01:38:07;5.85;;;4.55;;
3677;SDS011;1855;50.934;6.958;2023-08-31T01:40:36;8.35;;;4.20;;
3677;SDS011;1855;50.934;6.958;2023-08-31T01:43:06;4.77;;;3.80;;
3677;SDS011;1855;50.934;6.958;2023-08-31T01:45:34;7.15;;;4.28;;
3677;SDS011;1855;50.934;6.958;2023-08-31T01:48:02;6.50;;;3.90;;
3677;SDS011;1855;50.934;6.958;2023-08-31T01:50:30;4.70;;;3.70;;
3677;SDS011;1855;50.934;6.958;2023-08-31T01:52:57;6.07;;;3.72;;
3677;SDS011;1855;50.934;6.958;2023-08-31T01:55:24;5.10;;;3.78;;
3677;SDS011;1855;50.934;6.958;2023-08-31T01:57:51;4.30;;;3.35;;
3677;SDS011;1855;50.934;6.958;2023-08-31T02:00:20;6.57;;;3.55;;
3677;SDS011;1855;50.934;6.958;2023-08-31T02:02:47;3.70;;;3.00;;
3677;SDS011;1855;50.934;6.958;2023-08-31T02:05:14;4.20;;;3.38;;
3677;SDS011;1855;50.934;6.958;2023-08-31T02:07:41;5.07;;;3.20;;
3677;SDS011;1855;50.934;6.958;2023-08-31T02:10:08;3.80;;;2.60;;
3677;SDS011;1855;50.934;6.958;2023-08-31T02:12:36;4.18;;;3.00;;
3677;SDS011;1855;50.934;6.958;2023-08-31T02:15:03;4.50;;;2.88;;
3677;SDS011;1855;50.934;6.958;2023-08-31T02:17:32;4.80;;;3.10;;
3677;SDS011;1855;50.934;6.958;2023-08-31T02:20:00;4.38;;;3.10;;
3677;SDS011;1855;50.934;6.958;2023-08-31T02:22:29;4.43;;;3.00;;
3677;SDS011;1855;50.934;6.958;2023-08-31T02:24:57;3.80;;;3.03;;
3677;SDS011;1855;50.934;6.958;2023-08-31T02:27:24;3.58;;;2.97;;
3677;SDS011;1855;50.934;6.958;2023-08-31T02:29:51;4.38;;;3.20;;
3677;SDS011;1855;50.934;6.958;2023-08-31T02:32:18;4.72;;;3.10;;
3677;SDS011;1855;50.934;6.958;2023-08-31T02:34:47;4.57;;;3.00;;
3677;SDS011;1855;50.934;6.958;2023-08-31T02:37:14;4.03;;;3.13;;
3677;SDS011;1855;50.934;6.958;2023-08-31T02:39:41;4.75;;;3.30;;
3677;SDS011;1855;50.934;6.958;2023-08-31T02:42:08;4.10;;;2.97;;
3677;SDS011;1855;50.934;6.958;2023-08-31T02:44:35;4.80;;;2.80;;
3677;SDS011;1855;50.934;6.958;2023-08-31T02:47:02;3.58;;;3.05;;
3677;SDS011;1855;50.934;6.958;2023-08-31T02:49:29;4.65;;;3.10;;
3677;SDS011;1855;50.934;6.958;2023-08-31T02:51:57;4.82;;;3.00;;
3677;SDS011;1855;50.934;6.958;2023-08-31T02:54:25;3.70;;;3.30;;
3677;SDS011;1855;50.934;6.958;2023-08-31T02:56:52;5.18;;;3.60;;
3677;SDS011;1855;50.934;6.958;2023-08-31T02:59:19;5.78;;;3.92;;
3677;SDS011;1855;50.934;6.958;2023-08-31T03:01:46;3.80;;;3.40;;
3677;SDS011;1855;50.934;6.958;2023-08-31T03:04:13;3.65;;;2.92;;
3677;SDS011;1855;50.934;6.958;2023-08-31T03:06:40;3.90;;;3.20;;
3677;SDS011;1855;50.934;6.958;2023-08-31T03:09:08;4.37;;;3.03;;
3677;SDS011;1855;50.934;6.958;2023-08-31T03:11:35;3.40;;;3.10;;
3677;SDS011;1855;50.934;6.958;2023-08-31T03:14:02;3.78;;;2.90;;
3677;SDS011;1855;50.934;6.958;2023-08-31T03:16:29;3.50;;;2.90;;
3677;SDS011;1855;50.934;6.958;2023-08-31T03:18:56;4.10;;;2.80;;
3677;SDS011;1855;50.934;6.958;2023-08-31T03:21:24;3.90;;;2.90;;
3677;SDS011;1855;50.934;6.958;2023-08-31T03:23:51;3.00;;;2.70;;
3677;SDS011;1855;50.934;6.958;2023-08-31T03:26:19;4.20;;;2.83;;
3677;SDS011;1855;50.934;6.958;2023-08-31T03:28:46;4.38;;;3.25;;
3677;SDS011;1855;50.934;6.958;2023-08-31T03:31:13;5.00;;;3.30;;
3677;SDS011;1855;50.934;6.958;2023-08-31T03:33:40;3.83;;;3.30;;
3677;SDS011;1855;50.934;6.958;2023-08-31T03:36:07;4.35;;;3.90;;
3677;SDS011;1855;50.934;6.958;2023-08-31T03:38:34;4.90;;;4.00;;
3677;SDS011;1855;50.934;6.958;2023-08-31T03:41:03;4.30;;;3.50;;
3677;SDS011;1855;50.934;6.958;2023-08-31T03:43:31;4.55;;;3.65;;
3677;SDS011;1855;50.934;6.958;2023-08-31T03:45:59;4.75;;;3.80;;
3677;SDS011;1855;50.934;6.958;2023-08-31T03:48:26;4.80;;;3.38;;
3677;SDS011;1855;50.934;6.958;2023-08-31T03:50:53;4.53;;;3.40;;
3677;SDS011;1855;50.934;6.958;2023-08-31T03:53:21;4.18;;;3.53;;
3677;SDS011;1855;50.934;6.958;2023-08-31T03:55:48;3.65;;;3.30;;
3677;SDS011;1855;50.934;6.958;2023-08-31T03:58:15;3.53;;;3.22;;
3677;SDS011;1855;50.934;6.958;2023-08-31T04:00:44;3.40;;;3.10;;
3677;SDS011;1855;50.934;6.958;2023-08-31T04:03:11;3.60;;;3.00;;
3677;SDS011;1855;50.934;6.958;2023-08-31T04:05:38;4.70;;;3.20;;
3677;SDS011;1855;50.934;6.958;2023-08-31T04:08:05;4.63;;;3.35;;
3677;SDS011;1855;50.934;6.958;2023-08-31T04:10:32;3.40;;;3.10;;
3677;SDS011;1855;50.934;6.958;2023-08-31T04:12:59;4.40;;;3.22;;
3677;SDS011;1855;50.934;6.958;2023-08-31T04:15:26;4.82;;;3.00;;
3677;SDS011;1855;50.934;6.958;2023-08-31T04:17:57;3.80;;;3.40;;
3677;SDS011;1855;50.934;6.958;2023-08-31T04:20:24;4.20;;;3.40;;
3677;SDS011;1855;50.934;6.958;2023-08-31T04:22:51;3.67;;;3.37;;
3677;SDS011;1855;50.934;6.958;2023-08-31T04:25:18;3.70;;;3.25;;
3677;SDS011;1855;50.934;6.958;2023-08-31T04:27:45;4.30;;;3.90;;
3677;SDS011;1855;50.934;6.958;2023-08-31T04:30:12;3.97;;;3.40;;
3677;SDS011;1855;50.934;6.958;2023-08-31T04:32:39;4.20;;;3.80;;
3677;SDS011;1855;50.934;6.958;2023-08-31T04:35:08;5.20;;;3.40;;
3677;SDS011;1855;50.934;6.958;2023-08-31T04:37:35;5.03;;;3.40;;
3677;SDS011;1855;50.934;6.958;2023-08-31T04:40:03;3.50;;;3.10;;
3677;SDS011;1855;50.934;6.958;2023-08-31T04:42:30;4.32;;;3.60;;
3677;SDS011;1855;50.934;6.958;2023-08-31T04:44:57;5.10;;;4.13;;
3677;SDS011;1855;50.934;6.958;2023-08-31T04:47:24;5.22;;;4.32;;
3677;SDS011;1855;50.934;6.958;2023-08-31T04:49:51;5.28;;;3.55;;
3677;SDS011;1855;50.934;6.958;2023-08-31T04:52:19;4.00;;;3.33;;
3677;SDS011;1855;50.934;6.958;2023-08-31T04:54:46;5.07;;;4.03;;
3677;SDS011;1855;50.934;6.958;2023-08-31T04:57:14;6.30;;;4.78;;
3677;SDS011;1855;50.934;6.958;2023-08-31T04:59:41;6.18;;;4.00;;
3677;SDS011;1855;50.934;6.958;2023-08-31T05:02:08;5.05;;;4.13;;
3677;SDS011;1855;50.934;6.958;2023-08-31T05:04:35;4.80;;;4.30;;
3677;SDS011;1855;50.934;6.958;2023-08-31T05:07:02;4.30;;;3.90;;
3677;SDS011;1855;50.934;6.958;2023-08-31T05:09:30;4.50;;;4.00;;
3677;SDS011;1855;50.934;6.958;2023-08-31T05:12:00;6.47;;;4.30;;
3677;SDS011;1855;50.934;6.958;2023-08-31T05:14:27;4.88;;;4.47;;
3677;SDS011;1855;50.934;6.958;2023-08-31T05:16:54;4.90;;;4.40;;
3677;SDS011;1855;50.934;6.958;2023-08-31T05:19:22;6.05;;;4.80;;
3677;SDS011;1855;50.934;6.958;2023-08-31T05:21:49;5.27;;;3.80;;
3677;SDS011;1855;50.934;6.958;2023-08-31T05:24:16;4.97;;;3.85;;
3677;SDS011;1855;50.934;6.958;2023-08-31T05:26:45;4.80;;;4.30;;
3677;SDS011;1855;50.934;6.958;2023-08-31T05:29:12;4.85;;;4.45;;
3677;SDS011;1855;50.934;6.958;2023-08-31T05:31:39;4.60;;;4.10;;
3677;SDS011;1855;50.934;6.958;2023-08-31T05:34:06;6.87;;;4.70;;
3677;SDS011;1855;50.934;6.958;2023-08-31T05:36:33;6.60;;;4.53;;
3677;SDS011;1855;50.934;6.958;2023-08-31T05:39:00;5.57;;;4.40;;
3677;SDS011;1855;50.934;6.958;2023-08-31T05:41:27;5.43;;;4.60;;
3677;SDS011;1855;50.934;6.958;2023-08-31T05:43:56;4.45;;;4.05;;
3677;SDS011;1855;50.934;6.958;2023-08-31T05:46:23;4.30;;;3.80;;
3677;SDS011;1855;50.934;6.958;2023-08-31T05:48:50;6.97;;;4.28;;
3677;SDS011;1855;50.934;6.958;2023-08-31T05:51:18;4.82;;;4.00;;
3677;SDS011;1855;50.934;6.958;2023-08-31T05:53:45;4.95;;;4.15;;
3677;SDS011;1855;50.934;6.958;2023-08-31T05:56:12;4.63;;;3.80;;
3677;SDS011;1855;50.934;6.958;2023-08-31T05:58:39;4.55;;;3.65;;
3677;SDS011;1855;50.934;6.958;2023-08-31T06:01:08;4.30;;;3.90;;
3677;SDS011;1855;50.934;6.958;2023-08-31T06:03:35;6.68;;;3.97;;
3677;SDS011;1855;50.934;6.958;2023-08-31T06:06:02;6.95;;;4.00;;
3677;SDS011;1855;50.934;6.958;2023-08-31T06:08:29;4.10;;;3.60;;
3677;SDS011;1855;50.934;6.958;2023-08-31T06:10:56;5.50;;;3.72;;
3677;SDS011;1855;50.934;6.958;2023-08-31T06:13:23;4.63;;;3.35;;
3677;SDS011;1855;50.934;6.958;2023-08-31T06:15:50;6.77;;;3.70;;
3677;SDS011;1855;50.934;6.958;2023-08-31T06:18:19;4.80;;;3.42;;
3677;SDS011;1855;50.934;6.958;2023-08-31T06:20:46;4.10;;;3.47;;
3677;SDS011;1855;50.934;6.958;2023-08-31T06:23:14;4.88;;;3.40;;
3677;SDS011;1855;50.934;6.958;2023-08-31T06:25:41;5.63;;;3.58;;
3677;SDS011;1855;50.934;6.958;2023-08-31T06:28:10;5.88;;;3.28;;
3677;SDS011;1855;50.934;6.958;2023-08-31T06:30:38;4.32;;;3.20;;
3677;SDS011;1855;50.934;6.958;2023-08-31T06:33:05;5.13;;;3.22;;
3677;SDS011;1855;50.934;6.958;2023-08-31T06:35:33;4.75;;;2.80;;
3677;SDS011;1855;50.934;6.958;2023-08-31T06:38:01;5.32;;;3.40;;
3677;SDS011;1855;50.934;6.958;2023-08-31T06:40:28;4.40;;;2.85;;
3677;SDS011;1855;50.934;6.958;2023-08-31T06:42:55;5.05;;;3.60;;
3677;SDS011;1855;50.934;6.958;2023-08-31T06:45:22;5.70;;;3.47;;
3677;SDS011;1855;50.934;6.958;2023-08-31T06:47:49;6.07;;;3.40;;
3677;SDS011;1855;50.934;6.958;2023-08-31T06:50:16;5.22;;;3.58;;
3677;SDS011;1855;50.934;6.958;2023-08-31T06:52:44;4.73;;;3.03;;
3677;SDS011;1855;50.934;6.958;2023-08-31T06:55:11;4.30;;;2.80;;
3677;SDS011;1855;50.934;6.958;2023-08-31T06:57:39;5.35;;;2.72;;
3677;SDS011;1855;50.934;6.958;2023-08-31T07:00:07;5.85;;;3.28;;
3677;SDS011;1855;50.934;6.958;2023-08-31T07:02:38;5.47;;;3.30;;
3677;SDS011;1855;50.934;6.958;2023-08-31T07:05:06;3.55;;;2.65;;
3677;SDS011;1855;50.934;6.958;2023-08-31T07:07:33;6.97;;;3.20;;
3677;SDS011;1855;50.934;6.958;2023-08-31T07:10:02;4.82;;;2.75;;
3677;SDS011;1855;50.934;6.958;2023-08-31T07:12:30;4.38;;;2.80;;
3677;SDS011;1855;50.934;6.958;2023-08-31T07:14:57;3.42;;;2.58;;
3677;SDS011;1855;50.934;6.958;2023-08-31T07:17:24;4.70;;;2.80;;
3677;SDS011;1855;50.934;6.958;2023-08-31T07:19:52;5.28;;;2.50;;
3677;SDS011;1855;50.934;6.958;2023-08-31T07:22:19;5.30;;;2.73;;
3677;SDS011;1855;50.934;6.958;2023-08-31T07:24:46;6.05;;;2.83;;
3677;SDS011;1855;50.934;6.958;2023-08-31T07:27:14;6.07;;;3.00;;
3677;SDS011;1855;50.934;6.958;2023-08-31T07:29:41;7.30;;;2.90;;
3677;SDS011;1855;50.934;6.958;2023-08-31T07:32:08;4.00;;;2.50;;
3677;SDS011;1855;50.934;6.958;2023-08-31T07:34:36;5.35;;;2.50;;
3677;SDS011;1855;50.934;6.958;2023-08-31T07:37:03;3.80;;;2.40;;
3677;SDS011;1855;50.934;6.958;2023-08-31T07:39:31;4.72;;;2.50;;
3677;SDS011;1855;50.934;6.958;2023-08-31T07:41:58;6.10;;;2.30;;
3677;SDS011;1855;50.934;6.958;2023-08-31T07:44:26;5.63;;;2.50;;
3677;SDS011;1855;50.934;6.958;2023-08-31T07:46:53;4.78;;;2.30;;
3677;SDS011;1855;50.934;6.958;2023-08-31T07:49:21;6.47;;;2.67;;
3677;SDS011;1855;50.934;6.958;2023-08-31T07:51:48;4.72;;;2.40;;
3677;SDS011;1855;50.934;6.958;2023-08-31T07:54:19;4.85;;;1.95;;
3677;SDS011;1855;50.934;6.958;2023-08-31T07:56:46;3.40;;;2.10;;
3677;SDS011;1855;50.934;6.958;2023-08-31T07:59:13;3.40;;;1.98;;
3677;SDS011;1855;50.934;6.958;2023-08-31T08:01:41;3.75;;;1.90;;
3677;SDS011;1855;50.934;6.958;2023-08-31T08:04:08;4.03;;;2.00;;
3677;SDS011;1855;50.934;6.958;2023-08-31T08:06:35;3.85;;;1.80;;
3677;SDS011;1855;50.934;6.958;2023-08-31T08:09:02;6.10;;;2.10;;
3677;SDS011;1855;50.934;6.958;2023-08-31T08:11:30;4.60;;;2.00;;
3677;SDS011;1855;50.934;6.958;2023-08-31T08:13:57;3.63;;;1.85;;
3677;SDS011;1855;50.934;6.958;2023-08-31T08:16:24;5.20;;;2.10;;
3677;SDS011;1855;50.934;6.958;2023-08-31T08:18:52;3.60;;;2.10;;
3677;SDS011;1855;50.934;6.958;2023-08-31T08:21:19;5.18;;;2.22;;
3677;SDS011;1855;50.934;6.958;2023-08-31T08:23:46;3.43;;;2.00;;
3677;SDS011;1855;50.934;6.958;2023-08-31T08:26:15;3.00;;;1.88;;
3677;SDS011;1855;50.934;6.958;2023-08-31T08:28:42;3.20;;;1.80;;
3677;SDS011;1855;50.934;6.958;2023-08-31T08:31:11;4.78;;;2.10;;
3677;SDS011;1855;50.934;6.958;2023-08-31T08:33:38;3.77;;;1.80;;
3677;SDS011;1855;50.934;6.958;2023-08-31T08:36:06;3.20;;;1.90;;
3677;SDS011;1855;50.934;6.958;2023-08-31T08:38:33;3.10;;;1.85;;
3677;SDS011;1855;50.934;6.958;2023-08-31T08:41:03;5.10;;;2.15;;
3677;SDS011;1855;50.934;6.958;2023-08-31T08:43:31;6.35;;;2.40;;
3677;SDS011;1855;50.934;6.958;2023-08-31T08:45:59;3.25;;;1.70;;
3677;SDS011;1855;50.934;6.958;2023-08-31T08:48:32;3.20;;;1.60;;
3677;SDS011;1855;50.934;6.958;2023-08-31T08:51:00;6.25;;;2.30;;
3677;SDS011;1855;50.934;6.958;2023-08-31T08:53:29;5.10;;;2.20;;
3677;SDS011;1855;50.934;6.958;2023-08-31T08:55:56;3.38;;;1.90;;
3677;SDS011;1855;50.934;6.958;2023-08-31T08:58:23;3.70;;;2.03;;
3677;SDS011;1855;50.934;6.958;2023-08-31T09:00:50;3.55;;;2.10;;
3677;SDS011;1855;50.934;6.958;2023-08-31T09:03:18;3.63;;;1.65;;
3677;SDS011;1855;50.934;6.958;2023-08-31T09:05:45;3.55;;;1.50;;
3677;SDS011;1855;50.934;6.958;2023-08-31T09:08:12;4.03;;;1.77;;
3677;SDS011;1855;50.934;6.958;2023-08-31T09:10:42;3.20;;;1.85;;
3677;SDS011;1855;50.934;6.958;2023-08-31T09:13:09;4.40;;;2.00;;
3677;SDS011;1855;50.934;6.958;2023-08-31T09:15:41;3.13;;;1.50;;
3677;SDS011;1855;50.934;6.958;2023-08-31T09:18:08;3.80;;;1.85;;
3677;SDS011;1855;50.934;6.958;2023-08-31T09:20:43;4.65;;;2.10;;
3677;SDS011;1855;50.934;6.958;2023-08-31T09:23:10;3.97;;;1.60;;
3677;SDS011;1855;50.934;6.958;2023-08-31T09:25:41;4.05;;;2.00;;
3677;SDS011;1855;50.934;6.958;2023-08-31T09:28:09;3.90;;;1.40;;
3677;SDS011;1855;50.934;6.958;2023-08-31T09:30:36;2.20;;;1.50;;
3677;SDS011;1855;50.934;6.958;2023-08-31T09:33:05;2.55;;;1.40;;
3677;SDS011;1855;50.934;6.958;2023-08-31T09:35:34;3.95;;;1.70;;
3677;SDS011;1855;50.934;6.958;2023-08-31T09:38:01;3.00;;;1.50;;
3677;SDS011;1855;50.934;6.958;2023-08-31T09:40:28;6.50;;;2.70;;
3677;SDS011;1855;50.934;6.958;2023-08-31T09:42:57;3.63;;;1.80;;
3677;SDS011;1855;50.934;6.958;2023-08-31T09:45:28;5.70;;;2.20;;
3677;SDS011;1855;50.934;6.958;2023-08-31T09:47:56;2.65;;;1.60;;
3677;SDS011;1855;50.934;6.958;2023-08-31T09:50:24;3.08;;;1.60;;
3677;SDS011;1855;50.934;6.958;2023-08-31T09:52:52;4.00;;;1.40;;
3677;SDS011;1855;50.934;6.958;2023-08-31T09:55:21;2.80;;;1.30;;
3677;SDS011;1855;50.934;6.958;2023-08-31T09:57:48;3.00;;;1.40;;
3677;SDS011;1855;50.934;6.958;2023-08-31T10:00:17;2.38;;;1.20;;
3677;SDS011;1855;50.934;6.958;2023-08-31T10:02:44;2.50;;;1.42;;
3677;SDS011;1855;50.934;6.958;2023-08-31T10:05:12;1.63;;;1.20;;
3677;SDS011;1855;50.934;6.958;2023-08-31T10:07:40;3.90;;;1.20;;
3677;SDS011;1855;50.934;6.958;2023-08-31T10:10:08;4.00;;;1.13;;
3677;SDS011;1855;50.934;6.958;2023-08-31T10:12:35;3.00;;;1.20;;
3677;SDS011;1855;50.934;6.958;2023-08-31T10:15:04;3.60;;;1.30;;
3677;SDS011;1855;50.934;6.958;2023-08-31T10:17:32;3.20;;;1.30;;
3677;SDS011;1855;50.934;6.958;2023-08-31T10:20:00;1.80;;;1.30;;
3677;SDS011;1855;50.934;6.958;2023-08-31T10:22:28;2.60;;;1.60;;
3677;SDS011;1855;50.934;6.958;2023-08-31T10:24:59;2.50;;;1.20;;
3677;SDS011;1855;50.934;6.958;2023-08-31T10:27:28;4.10;;;1.40;;
3677;SDS011;1855;50.934;6.958;2023-08-31T10:29:55;2.17;;;1.10;;
3677;SDS011;1855;50.934;6.958;2023-08-31T10:32:22;3.85;;;1.50;;
3677;SDS011;1855;50.934;6.958;2023-08-31T10:35:07;2.72;;;1.10;;
3677;SDS011;1855;50.934;6.958;2023-08-31T10:37:34;2.95;;;1.13;;
3677;SDS011;1855;50.934;6.958;2023-08-31T10:40:08;3.78;;;1.30;;
3677;SDS011;1855;50.934;6.958;2023-08-31T10:42:43;2.60;;;1.10;;
3677;SDS011;1855;50.934;6.958;2023-08-31T10:45:10;2.10;;;1.13;;
3677;SDS011;1855;50.934;6.958;2023-08-31T10:47:37;2.33;;;1.20;;
3677;SDS011;1855;50.934;6.958;2023-08-31T10:50:21;2.22;;;1.17;;
3677;SDS011;1855;50.934;6.958;2023-08-31T10:52:49;3.20;;;1.40;;
3677;SDS011;1855;50.934;6.958;2023-08-31T10:55:16;2.70;;;1.30;;
3677;SDS011;1855;50.934;6.958;2023-08-31T10:57:43;3.00;;;1.40;;
3677;SDS011;1855;50.934;6.958;2023-08-31T11:00:11;3.00;;;1.60;;
3677;SDS011;1855;50.934;6.958;2023-08-31T11:02:41;3.45;;;1.60;;
3677;SDS011;1855;50.934;6.958;2023-08-31T11:05:09;3.47;;;1.80;;
3677;SDS011;1855;50.934;6.958;2023-08-31T11:07:37;3.27;;;1.57;;
3677;SDS011;1855;50.934;6.958;2023-08-31T11:10:15;2.95;;;1.60;;
3677;SDS011;1855;50.934;6.958;2023-08-31T11:12:43;3.90;;;2.10;;
3677;SDS011;1855;50.934;6.958;2023-08-31T11:15:11;3.63;;;1.70;;
3677;SDS011;1855;50.934;6.958;2023-08-31T11:17:39;4.40;;;1.63;;
3677;SDS011;1855;50.934;6.958;2023-08-31T11:20:07;3.10;;;1.75;;
3677;SDS011;1855;50.934;6.958;2023-08-31T11:22:34;2.35;;;1.60;;
3677;SDS011;1855;50.934;6.958;2023-08-31T11:25:06;3.90;;;1.50;;
3677;SDS011;1855;50.934;6.958;2023-08-31T11:27:34;3.70;;;1.60;;
3677;SDS011;1855;50.934;6.958;2023-08-31T11:30:02;4.10;;;1.60;;
3677;SDS011;1855;50.934;6.958;2023-08-31T11:32:29;3.97;;;1.80;;
3677;SDS011;1855;50.934;6.958;2023-08-31T11:34:56;3.30;;;1.80;;
3677;SDS011;1855;50.934;6.958;2023-08-31T11:37:23;3.80;;;1.90;;
3677;SDS011;1855;50.934;6.958;2023-08-31T11:39:52;6.00;;;2.50;;
3677;SDS011;1855;50.934;6.958;2023-08-31T11:42:21;2.78;;;1.70;;
3677;SDS011;1855;50.934;6.958;2023-08-31T11:44:48;2.90;;;2.08;;
3677;SDS011;1855;50.934;6.958;2023-08-31T11:47:16;3.40;;;2.10;;
3677;SDS011;1855;50.934;6.958;2023-08-31T11:49:43;2.63;;;1.70;;
3677;SDS011;1855;50.934;6.958;2023-08-31T11:52:10;4.20;;;1.80;;
3677;SDS011;1855;50.934;6.958;2023-08-31T11:54:38;3.10;;;1.75;;
3677;SDS011;1855;50.934;6.958;2023-08-31T11:57:06;3.43;;;1.60;;
3677;SDS011;1855;50.934;6.958;2023-08-31T11:59:36;3.10;;;2.00;;
3677;SDS011;1855;50.934;6.958;2023-08-31T12:02:05;2.33;;;1.40;;
3677;SDS011;1855;50.934;6.958;2023-08-31T12:04:32;2.28;;;1.52;;
3677;SDS011;1855;50.934;6.958;2023-08-31T12:07:00;2.25;;;1.20;;
3677;SDS011;1855;50.934;6.958;2023-08-31T12:09:29;2.30;;;1.50;;
3677;SDS011;1855;50.934;6.958;2023-08-31T12:11:56;2.45;;;1.60;;
3677;SDS011;1855;50.934;6.958;2023-08-31T12:14:25;3.20;;;1.50;;
3677;SDS011;1855;50.934;6.958;2023-08-31T12:17:00;2.92;;;1.67;;
3677;SDS011;1855;50.934;6.958;2023-08-31T12:19:28;2.30;;;1.50;;
3677;SDS011;1855;50.934;6.958;2023-08-31T12:21:56;3.03;;;1.10;;
3677;SDS011;1855;50.934;6.958;2023-08-31T12:24:23;3.45;;;1.30;;
3677;SDS011;1855;50.934;6.958;2023-08-31T12:26:50;2.67;;;1.70;;
3677;SDS011;1855;50.934;6.958;2023-08-31T12:29:19;2.55;;;1.55;;
3677;SDS011;1855;50.934;6.958;2023-08-31T12:31:46;5.53;;;1.83;;
3677;SDS011;1855;50.934;6.958;2023-08-31T12:34:14;3.70;;;1.67;;
3677;SDS011;1855;50.934;6.958;2023-08-31T12:36:41;5.07;;;2.08;;
3677;SDS011;1855;50.934;6.958;2023-08-31T12:39:08;3.38;;;1.80;;
3677;SDS011;1855;50.934;6.958;2023-08-31T12:41:37;4.80;;;2.50;;
3677;SDS011;1855;50.934;6.958;2023-08-31T12:44:04;4.13;;;1.63;;
3677;SDS011;1855;50.934;6.958;2023-08-31T12:46:31;3.60;;;1.50;;
3677;SDS011;1855;50.934;6.958;2023-08-31T12:48:59;2.88;;;1.23;;
3677;SDS011;1855;50.934;6.958;2023-08-31T12:51:27;3.80;;;1.90;;
3677;SDS011;1855;50.934;6.958;2023-08-31T12:53:55;3.05;;;1.40;;
3677;SDS011;1855;50.934;6.958;2023-08-31T12:56:22;3.20;;;1.40;;
3677;SDS011;1855;50.934;6.958;2023-08-31T12:58:49;3.65;;;1.80;;
3677;SDS011;1855;50.934;6.958;2023-08-31T13:01:17;3.43;;;1.70;;
3677;SDS011;1855;50.934;6.958;2023-08-31T13:03:44;2.65;;;1.58;;
3677;SDS011;1855;50.934;6.958;2023-08-31T13:06:12;3.60;;;1.38;;
3677;SDS011;1855;50.934;6.958;2023-08-31T13:08:40;3.22;;;1.63;;
3677;SDS011;1855;50.934;6.958;2023-08-31T13:11:08;2.03;;;1.50;;
3677;SDS011;1855;50.934;6.958;2023-08-31T13:13:35;2.53;;;1.50;;
3677;SDS011;1855;50.934;6.958;2023-08-31T13:16:02;2.13;;;1.30;;
3677;SDS011;1855;50.934;6.958;2023-08-31T13:18:29;3.05;;;1.70;;
3677;SDS011;1855;50.934;6.958;2023-08-31T13:20:56;4.90;;;1.60;;
3677;SDS011;1855;50.934;6.958;2023-08-31T13:23:23;3.10;;;1.53;;
3677;SDS011;1855;50.934;6.958;2023-08-31T13:25:52;2.83;;;1.60;;
3677;SDS011;1855;50.934;6.958;2023-08-31T13:28:21;4.13;;;1.70;;
3677;SDS011;1855;50.934;6.958;2023-08-31T13:30:48;4.32;;;2.00;;
3677;SDS011;1855;50.934;6.958;2023-08-31T13:33:15;3.78;;;1.95;;
3677;SDS011;1855;50.934;6.958;2023-08-31T13:35:42;2.30;;;1.80;;
3677;SDS011;1855;50.934;6.958;2023-08-31T13:38:09;2.20;;;1.63;;
3677;SDS011;1855;50.934;6.958;2023-08-31T13:40:36;3.40;;;1.80;;
3677;SDS011;1855;50.934;6.958;2023-08-31T13:43:05;3.63;;;2.00;;
3677;SDS011;1855;50.934;6.958;2023-08-31T13:45:32;3.20;;;1.90;;
3677;SDS011;1855;50.934;6.958;2023-08-31T13:47:59;2.70;;;1.80;;
3677;SDS011;1855;50.934;6.958;2023-08-31T13:50:26;2.22;;;1.70;;
3677;SDS011;1855;50.934;6.958;2023-08-31T13:52:53;5.57;;;2.35;;
3677;SDS011;1855;50.934;6.958;2023-08-31T13:55:20;3.42;;;1.73;;
3677;SDS011;1855;50.934;6.958;2023-08-31T13:57:48;3.97;;;1.45;;
3677;SDS011;1855;50.934;6.958;2023-08-31T14:00:16;3.20;;;2.00;;
3677;SDS011;1855;50.934;6.958;2023-08-31T14:02:44;3.30;;;1.50;;
3677;SDS011;1855;50.934;6.958;2023-08-31T14:05:11;3.97;;;1.42;;
3677;SDS011;1855;50.934;6.958;2023-08-31T14:07:39;2.40;;;1.30;;
3677;SDS011;1855;50.934;6.958;2023-08-31T14:10:07;1.40;;;1.10;;
3677;SDS011;1855;50.934;6.958;2023-08-31T14:12:34;2.63;;;1.40;;
3677;SDS011;1855;50.934;6.958;2023-08-31T14:15:01;2.00;;;1.52;;
3677;SDS011;1855;50.934;6.958;2023-08-31T14:17:30;3.03;;;1.60;;
3677;SDS011;1855;50.934;6.958;2023-08-31T14:19:58;2.00;;;1.20;;
3677;SDS011;1855;50.934;6.958;2023-08-31T14:22:25;2.60;;;1.60;;
3677;SDS011;1855;50.934;6.958;2023-08-31T14:24:53;2.72;;;1.30;;
3677;SDS011;1855;50.934;6.958;2023-08-31T14:27:20;3.22;;;1.55;;
3677;SDS011;1855;50.934;6.958;2023-08-31T14:29:48;2.30;;;1.20;;
3677;SDS011;1855;50.934;6.958;2023-08-31T14:32:15;2.15;;;1.10;;
3677;SDS011;1855;50.934;6.958;2023-08-31T14:34:43;2.65;;;1.30;;
3677;SDS011;1855;50.934;6.958;2023-08-31T14:37:10;2.33;;;1.10;;
3677;SDS011;1855;50.934;6.958;2023-08-31T14:39:37;2.10;;;1.40;;
3677;SDS011;1855;50.934;6.958;2023-08-31T14:42:04;2.00;;;1.25;;
3677;SDS011;1855;50.934;6.958;2023-08-31T14:44:31;3.30;;;1.50;;
3677;SDS011;1855;50.934;6.958;2023-08-31T14:46:59;1.70;;;1.20;;
3677;SDS011;1855;50.934;6.958;2023-08-31T14:49:26;1.90;;;1.20;;
3677;SDS011;1855;50.934;6.958;2023-08-31T14:51:54;2.35;;;1.10;;
3677;SDS011;1855;50.934;6.958;2023-08-31T14:54:22;2.00;;;1.20;;
3677;SDS011;1855;50.934;6.958;2023-08-31T14:56:49;2.40;;;1.40;;
3677;SDS011;1855;50.934;6.958;2023-08-31T14:59:16;2.42;;;1.40;;
3677;SDS011;1855;50.934;6.958;2023-08-31T15:01:43;1.90;;;1.30;;
3677;SDS011;1855;50.934;6.958;2023-08-31T15:04:11;2.10;;;1.20;;
3677;SDS011;1855;50.934;6.958;2023-08-31T15:06:38;2.67;;;1.20;;
3677;SDS011;1855;50.934;6.958;2023-08-31T15:09:06;2.53;;;1.40;;
3677;SDS011;1855;50.934;6.958;2023-08-31T15:11:33;2.20;;;1.50;;
3677;SDS011;1855;50.934;6.958;2023-08-31T15:14:01;2.33;;;1.40;;
3677;SDS011;1855;50.934;6.958;2023-08-31T15:16:29;2.72;;;1.55;;
3677;SDS011;1855;50.934;6.958;2023-08-31T15:18:58;2.85;;;1.80;;